Time;durP1;ratioP1;P1;durP2;ratioP2;P2;SDS_P1;SDS_P2;PMS_P1;PMS_P2;Temp;Humidity;BMP_temperature;BMP_pressure;BME280_temperature;BME280_humidity;BME280_pressure;Samples;Min_cycle;Max_cycle;Signal;HPM_P1;HPM_P2
2022/03/13 00:00:16;;;;;;;16.55;9.40;;;8.20;77.60;;;;;;4975938;28;20025;-82
2022/03/13 00:02:45;;;;;;;16.02;8.30;;;8.10;78.00;;;;;;4991975;28;20341;-81
2022/03/13 00:05:12;;;;;;;15.02;9.75;;;8.10;78.10;;;;;;4972182;28;20117;-82
2022/03/13 00:07:38;;;;;;;20.23;9.93;;;8.10;78.40;;;;;;4980156;28;20415;-81
2022/03/13 00:10:05;;;;;;;15.23;9.60;;;8.00;78.60;;;;;;4975313;28;20048;-82
2022/03/13 00:12:31;;;;;;;15.52;9.70;;;8.00;79.30;;;;;;4976902;28;21051;-81
2022/03/13 00:14:57;;;;;;;12.85;8.88;;;7.70;79.90;;;;;;4990857;28;20028;-81
2022/03/13 00:17:29;;;;;;;16.20;10.05;;;7.50;81.00;;;;;;4989683;28;20462;-81
2022/03/13 00:20:00;;;;;;;16.90;11.05;;;7.40;81.90;;;;;;4990256;28;20031;-81
2022/03/13 00:22:27;;;;;;;17.35;10.05;;;7.40;82.10;;;;;;4978542;28;20033;-81
2022/03/13 00:24:53;;;;;;;17.02;9.32;;;7.40;82.00;;;;;;4989041;28;20500;-82
2022/03/13 00:27:20;;;;;;;14.00;9.38;;;7.40;82.30;;;;;;4976438;28;20129;-81
2022/03/13 00:29:46;;;;;;;15.90;9.20;;;7.40;82.90;;;;;;4979248;28;20018;-81
2022/03/13 00:32:12;;;;;;;12.25;8.10;;;7.50;82.40;;;;;;4979123;28;20030;-81
2022/03/13 00:34:38;;;;;;;12.77;7.43;;;7.50;82.70;;;;;;4988201;28;20466;-81
2022/03/13 00:37:03;;;;;;;16.73;9.13;;;7.50;82.40;;;;;;4982061;28;20032;-81
2022/03/13 00:39:29;;;;;;;13.63;8.30;;;7.40;82.30;;;;;;4985629;28;20076;-81
2022/03/13 00:41:54;;;;;;;15.27;8.25;;;7.40;82.90;;;;;;4971150;28;20402;-82
2022/03/13 00:44:20;;;;;;;14.35;8.52;;;7.60;81.50;;;;;;4978844;28;20037;-81
2022/03/13 00:46:45;;;;;;;11.27;7.53;;;7.80;81.00;;;;;;4987358;28;20069;-81
2022/03/13 00:49:11;;;;;;;13.68;7.57;;;7.90;80.40;;;;;;4970064;28;20017;-81
2022/03/13 00:51:37;;;;;;;14.00;8.20;;;8.10;80.10;;;;;;4987293;28;20076;-81
2022/03/13 00:54:04;;;;;;;12.32;8.65;;;8.00;79.20;;;;;;4968330;28;20092;-81
2022/03/13 00:56:29;;;;;;;17.13;8.60;;;8.00;79.30;;;;;;4988741;28;20045;-81
2022/03/13 00:58:55;;;;;;;12.82;8.18;;;7.90;78.60;;;;;;5004290;28;20034;-81
2022/03/13 01:01:20;;;;;;;14.38;8.60;;;7.70;79.60;;;;;;4969965;28;20116;-81
2022/03/13 01:03:48;;;;;;;12.18;7.88;;;7.80;78.90;;;;;;4990640;28;20501;-81
2022/03/13 01:06:14;;;;;;;12.95;7.18;;;7.90;79.30;;;;;;4973015;28;20053;-80
2022/03/13 01:08:40;;;;;;;10.55;7.20;;;7.80;79.00;;;;;;4978074;28;20521;-81
2022/03/13 01:11:06;;;;;;;11.85;7.57;;;7.80;78.80;;;;;;4987271;28;20416;-81
2022/03/13 01:13:31;;;;;;;12.25;7.03;;;7.90;78.30;;;;;;4978129;28;20045;-81
2022/03/13 01:16:12;;;;;;;11.10;6.95;;;7.90;78.30;;;;;;4987848;28;20049;-81
2022/03/13 01:18:47;;;;;;;12.50;8.32;;;7.80;78.80;;;;;;5000217;28;20037;-80
2022/03/13 01:21:13;;;;;;;13.40;8.18;;;7.80;76.90;;;;;;4980151;28;20034;-81
2022/03/13 01:23:39;;;;;;;12.82;8.48;;;7.80;77.60;;;;;;4993181;28;20504;-81
2022/03/13 01:26:23;;;;;;;12.70;8.18;;;7.70;76.90;;;;;;4974764;28;20034;-81
2022/03/13 01:28:56;;;;;;;12.73;7.95;;;7.50;77.20;;;;;;5008333;28;20467;-81
2022/03/13 01:31:29;;;;;;;13.88;8.73;;;7.40;77.70;;;;;;4974420;28;20543;-81
2022/03/13 01:33:56;;;;;;;13.88;8.45;;;7.40;77.60;;;;;;4990632;28;20107;-80
2022/03/13 01:36:21;;;;;;;12.57;7.25;;;7.50;76.50;;;;;;4988513;28;20040;-81
2022/03/13 01:38:47;;;;;;;12.82;7.93;;;7.60;77.10;;;;;;4994679;28;20037;-80
2022/03/13 01:41:12;;;;;;;14.05;7.97;;;7.60;76.00;;;;;;4983145;28;20613;-80
2022/03/13 01:43:38;;;;;;;11.32;7.20;;;7.50;75.40;;;;;;4983787;28;20563;-80
2022/03/13 01:46:04;;;;;;;12.02;6.85;;;7.50;75.60;;;;;;4973427;28;20033;-81
2022/03/13 01:48:37;;;;;;;10.18;7.20;;;7.50;75.40;;;;;;4985227;28;20030;-80
2022/03/13 01:51:02;;;;;;;13.98;6.90;;;7.60;74.10;;;;;;4980602;28;20033;-80
2022/03/13 01:53:28;;;;;;;11.13;7.00;;;7.50;73.60;;;;;;4986245;28;20046;-80
2022/03/13 01:55:57;;;;;;;13.30;7.30;;;7.50;72.50;;;;;;4986666;28;20034;-80
2022/03/13 01:58:22;;;;;;;13.35;7.95;;;7.60;71.90;;;;;;4986558;28;20037;-80
2022/03/13 02:00:48;;;;;;;12.65;7.72;;;7.60;72.00;;;;;;4970053;28;20040;-80
2022/03/13 02:03:16;;;;;;;11.75;7.72;;;7.50;70.50;;;;;;4975155;28;20128;-81
2022/03/13 02:05:42;;;;;;;11.23;7.57;;;7.50;71.20;;;;;;5004599;28;20036;-80
2022/03/13 02:08:18;;;;;;;14.52;8.27;;;7.40;70.90;;;;;;4993583;28;20045;-80
2022/03/13 02:10:44;;;;;;;11.65;8.00;;;7.30;71.00;;;;;;4991169;28;20033;-80
2022/03/13 02:13:11;;;;;;;14.57;7.53;;;7.30;69.50;;;;;;4974669;28;20489;-80
2022/03/13 02:15:37;;;;;;;13.50;7.90;;;7.30;70.90;;;;;;4968616;28;20079;-81
2022/03/13 02:18:03;;;;;;;13.82;7.93;;;7.30;70.00;;;;;;4976965;28;20482;-80
2022/03/13 02:20:28;;;;;;;13.40;8.18;;;7.10;69.70;;;;;;4982914;28;20040;-80
2022/03/13 02:23:00;;;;;;;11.95;7.88;;;7.10;70.20;;;;;;4992917;28;20029;-80
2022/03/13 02:25:31;;;;;;;11.57;7.50;;;7.10;69.90;;;;;;4971428;28;20034;-80
2022/03/13 02:27:57;;;;;;;14.57;8.25;;;7.10;69.90;;;;;;4974559;28;20025;-83
2022/03/13 02:30:24;;;;;;;15.82;8.77;;;7.10;68.60;;;;;;4989777;28;20473;-80
2022/03/13 02:32:50;;;;;;;12.02;7.05;;;7.00;68.80;;;;;;4986299;28;20033;-80
2022/03/13 02:35:16;;;;;;;10.15;7.00;;;7.10;69.30;;;;;;4973965;28;20025;-80
2022/03/13 02:37:42;;;;;;;11.25;7.10;;;7.10;68.40;;;;;;4988768;28;20038;-80
2022/03/13 02:40:13;;;;;;;13.27;7.57;;;7.30;67.80;;;;;;5008275;28;20063;-81
2022/03/13 02:42:38;;;;;;;11.63;7.32;;;7.30;67.00;;;;;;4973435;28;20037;-80
2022/03/13 02:45:04;;;;;;;12.88;6.82;;;7.20;66.70;;;;;;4973183;28;20037;-80
2022/03/13 02:47:30;;;;;;;11.73;7.47;;;7.30;68.00;;;;;;4982739;28;20081;-79
2022/03/13 02:49:55;;;;;;;13.43;7.60;;;7.20;67.60;;;;;;4984615;28;20455;-79
2022/03/13 02:52:21;;;;;;;12.32;7.22;;;7.10;66.70;;;;;;4988424;28;20064;-80
2022/03/13 02:54:47;;;;;;;10.77;6.80;;;7.20;66.60;;;;;;4974987;28;20148;-82
2022/03/13 02:57:14;;;;;;;12.95;7.80;;;7.20;65.30;;;;;;5007178;28;20079;-79
2022/03/13 02:59:40;;;;;;;13.05;8.02;;;7.10;66.00;;;;;;4968895;28;20084;-81
2022/03/13 03:02:05;;;;;;;11.30;7.20;;;7.00;65.30;;;;;;4971451;28;20474;-80
2022/03/13 03:04:31;;;;;;;11.23;7.47;;;7.00;65.40;;;;;;4973660;28;20129;-79
2022/03/13 03:07:01;;;;;;;13.45;8.55;;;7.10;64.30;;;;;;4993697;28;20025;-79
2022/03/13 03:09:29;;;;;;;13.35;7.25;;;7.00;63.60;;;;;;4990001;28;20037;-79
2022/03/13 03:11:57;;;;;;;13.68;7.70;;;7.10;64.40;;;;;;4984025;28;20029;-80
2022/03/13 03:14:22;;;;;;;11.63;7.32;;;7.00;61.80;;;;;;4977175;28;20036;-79
2022/03/13 03:16:48;;;;;;;16.25;7.95;;;7.20;62.30;;;;;;4999839;28;20033;-79
2022/03/13 03:19:14;;;;;;;10.93;6.25;;;7.10;60.80;;;;;;4969782;28;20571;-80
2022/03/13 03:21:39;;;;;;;14.90;8.77;;;7.20;61.30;;;;;;4974917;28;20434;-80
2022/03/13 03:24:20;;;;;;;14.15;8.38;;;7.10;60.60;;;;;;4977856;28;20068;-80
2022/03/13 03:26:46;;;;;;;15.18;8.10;;;7.20;60.80;;;;;;4991879;28;20393;-80
2022/03/13 03:29:12;;;;;;;14.82;9.38;;;7.20;60.30;;;;;;4990761;28;20030;-80
2022/03/13 03:31:48;;;;;;;15.40;7.22;;;7.10;59.50;;;;;;4970449;28;20478;-80
2022/03/13 03:34:16;;;;;;;13.00;7.45;;;7.10;60.30;;;;;;4971709;28;20032;-81
2022/03/13 03:36:44;;;;;;;14.23;8.60;;;7.00;60.40;;;;;;4973791;28;20057;-80
2022/03/13 03:39:10;;;;;;;14.38;7.82;;;7.20;60.50;;;;;;4966881;28;20042;-80
2022/03/13 03:41:35;;;;;;;14.00;7.88;;;7.10;59.20;;;;;;4973582;28;20170;-81
2022/03/13 03:44:01;;;;;;;14.57;7.82;;;7.10;59.60;;;;;;4990912;28;20084;-81
2022/03/13 03:46:27;;;;;;;15.88;8.43;;;7.00;58.20;;;;;;4969081;28;20110;-81
2022/03/13 03:48:52;;;;;;;12.88;7.05;;;7.00;59.80;;;;;;4989702;28;20030;-79
2022/03/13 03:51:18;;;;;;;14.00;7.65;;;7.00;59.10;;;;;;4971061;28;20029;-80
2022/03/13 03:53:43;;;;;;;14.52;7.38;;;7.00;58.60;;;;;;5004993;28;20022;-81
2022/03/13 03:56:09;;;;;;;12.90;7.45;;;6.90;58.60;;;;;;4973970;28;20056;-81
2022/03/13 03:58:34;;;;;;;13.07;7.32;;;6.90;58.10;;;;;;4988089;28;20038;-80
2022/03/13 04:01:00;;;;;;;13.65;7.15;;;7.00;57.90;;;;;;4984697;28;20175;-80
2022/03/13 04:03:25;;;;;;;12.23;7.28;;;7.10;58.70;;;;;;4969792;28;20057;-80
2022/03/13 04:05:51;;;;;;;12.93;7.20;;;7.10;58.20;;;;;;4992704;28;20476;-82
2022/03/13 04:08:17;;;;;;;14.43;7.93;;;6.90;56.60;;;;;;4974143;28;20042;-82
2022/03/13 04:10:43;;;;;;;12.85;7.22;;;6.90;56.60;;;;;;4983721;28;20018;-80
2022/03/13 04:13:08;;;;;;;15.15;8.18;;;6.90;56.90;;;;;;4966776;28;20037;-80
2022/03/13 04:15:34;;;;;;;12.18;7.78;;;6.90;56.40;;;;;;4974062;28;20036;-80
2022/03/13 04:17:59;;;;;;;11.40;7.43;;;6.80;55.40;;;;;;4990265;28;20025;-80
2022/03/13 04:20:25;;;;;;;16.30;8.45;;;6.70;55.90;;;;;;4978049;28;20033;-80
2022/03/13 04:22:51;;;;;;;14.70;8.18;;;6.80;56.10;;;;;;4988271;28;20157;-80
2022/03/13 04:25:17;;;;;;;12.50;8.07;;;6.60;54.00;;;;;;4991752;28;20057;-80
2022/03/13 04:27:43;;;;;;;12.25;7.97;;;6.70;56.10;;;;;;4975082;28;20034;-82
2022/03/13 04:30:09;;;;;;;13.38;8.25;;;6.60;55.30;;;;;;4975486;28;20062;-80
2022/03/13 04:32:35;;;;;;;14.45;8.35;;;6.70;55.10;;;;;;4987721;28;20041;-80
2022/03/13 04:35:00;;;;;;;13.07;7.45;;;6.80;55.40;;;;;;4987986;28;20500;-80
2022/03/13 04:37:27;;;;;;;12.32;7.43;;;6.80;55.10;;;;;;4989509;28;20381;-80
2022/03/13 04:39:53;;;;;;;13.15;7.75;;;6.80;55.10;;;;;;4975884;28;20053;-81
2022/03/13 04:42:19;;;;;;;13.25;7.40;;;6.90;55.30;;;;;;4980110;28;20133;-81
2022/03/13 04:44:44;;;;;;;12.10;7.25;;;6.90;55.40;;;;;;4992042;28;20481;-81
2022/03/13 04:47:10;;;;;;;12.75;8.02;;;6.80;55.00;;;;;;4979532;28;20647;-80
2022/03/13 04:49:36;;;;;;;11.93;7.63;;;6.70;55.40;;;;;;4980394;28;20080;-80
2022/03/13 04:52:02;;;;;;;16.00;8.63;;;6.70;55.30;;;;;;4973908;28;20026;-81
2022/03/13 04:54:27;;;;;;;16.23;8.63;;;6.60;55.30;;;;;;4985743;28;20381;-80
2022/03/13 04:56:53;;;;;;;13.73;8.13;;;6.70;55.40;;;;;;4976367;28;20022;-80
2022/03/13 04:59:18;;;;;;;13.60;7.43;;;6.60;54.20;;;;;;4988541;28;20498;-80
2022/03/13 05:01:44;;;;;;;16.02;7.88;;;6.70;54.90;;;;;;4987127;28;20021;-80
2022/03/13 05:04:10;;;;;;;14.55;8.20;;;6.70;54.40;;;;;;4967352;28;20120;-81
2022/03/13 05:06:37;;;;;;;14.98;7.88;;;6.50;54.80;;;;;;4973573;28;20037;-81
2022/03/13 05:09:04;;;;;;;14.63;7.65;;;6.50;54.40;;;;;;4976120;28;20064;-81
2022/03/13 05:11:29;;;;;;;14.43;6.57;;;6.50;55.20;;;;;;4973380;28;20034;-81
2022/03/13 05:13:55;;;;;;;13.05;6.85;;;6.40;54.50;;;;;;4977047;28;20037;-80
2022/03/13 05:16:21;;;;;;;14.90;7.57;;;6.40;54.60;;;;;;4975615;28;20280;-80
2022/03/13 05:18:46;;;;;;;12.23;7.22;;;6.60;54.00;;;;;;4979060;28;20034;-80
2022/03/13 05:21:12;;;;;;;14.13;7.65;;;6.60;54.60;;;;;;4985977;28;20116;-81
2022/03/13 05:23:37;;;;;;;13.35;8.05;;;6.60;54.60;;;;;;4967386;28;20041;-81
2022/03/13 05:26:03;;;;;;;14.48;7.85;;;6.50;54.60;;;;;;4989111;28;20390;-80
2022/03/13 05:28:28;;;;;;;14.27;8.90;;;6.30;54.20;;;;;;4972274;28;20438;-81
2022/03/13 05:30:54;;;;;;;12.10;7.38;;;6.30;54.40;;;;;;4977067;28;20032;-80
2022/03/13 05:33:19;;;;;;;14.18;6.97;;;6.40;56.20;;;;;;4970701;28;20108;-80
2022/03/13 05:35:45;;;;;;;15.90;9.07;;;6.50;56.20;;;;;;4992234;28;20030;-80
2022/03/13 05:38:10;;;;;;;12.50;6.53;;;6.40;53.90;;;;;;4975521;28;20041;-81
2022/03/13 05:40:36;;;;;;;11.70;7.07;;;6.30;55.50;;;;;;4989544;28;20026;-81
2022/03/13 05:43:03;;;;;;;13.43;7.22;;;6.50;56.30;;;;;;4992447;28;20040;-80
2022/03/13 05:45:29;;;;;;;14.23;8.20;;;6.40;55.30;;;;;;4968648;28;20088;-80
2022/03/13 05:47:59;;;;;;;12.57;6.38;;;6.40;55.60;;;;;;4975294;28;21231;-81
2022/03/13 05:50:26;;;;;;;10.27;6.47;;;6.50;55.60;;;;;;4986231;28;20468;-81
2022/03/13 05:52:55;;;;;;;14.05;6.85;;;6.40;56.00;;;;;;4990314;28;20030;-81
2022/03/13 05:55:21;;;;;;;14.25;8.20;;;6.40;55.20;;;;;;4987840;28;20065;-81
2022/03/13 05:57:47;;;;;;;13.20;7.05;;;6.40;54.70;;;;;;4975753;28;20092;-81
2022/03/13 06:00:14;;;;;;;13.88;8.32;;;6.40;55.00;;;;;;4996504;28;20041;-81
2022/03/13 06:02:40;;;;;;;11.65;7.15;;;6.40;54.20;;;;;;4987628;28;20529;-80
2022/03/13 06:05:07;;;;;;;14.60;8.07;;;6.40;55.10;;;;;;4965157;28;20055;-82
2022/03/13 06:07:33;;;;;;;12.27;7.28;;;6.40;55.40;;;;;;4983593;28;20052;-80
2022/03/13 06:10:02;;;;;;;12.35;7.28;;;6.40;55.70;;;;;;4992624;28;20021;-81
2022/03/13 06:12:31;;;;;;;12.75;6.43;;;6.50;54.60;;;;;;4985421;28;20117;-80
2022/03/13 06:14:58;;;;;;;11.57;7.30;;;6.50;54.10;;;;;;4986457;28;20716;-81
2022/03/13 06:17:24;;;;;;;15.15;7.68;;;6.60;54.40;;;;;;4974702;28;20030;-81
2022/03/13 06:19:50;;;;;;;13.90;6.43;;;6.60;54.50;;;;;;4991727;28;20528;-80
2022/03/13 06:22:17;;;;;;;13.13;6.00;;;6.60;54.80;;;;;;4985296;28;20065;-81
2022/03/13 06:24:43;;;;;;;14.93;8.13;;;6.60;54.20;;;;;;5002462;28;20041;-80
2022/03/13 06:27:10;;;;;;;11.70;6.60;;;6.60;53.00;;;;;;4972665;28;20033;-80
2022/03/13 06:29:40;;;;;;;13.50;6.82;;;6.70;53.40;;;;;;4983540;28;20088;-80
2022/03/13 06:32:06;;;;;;;12.43;7.80;;;6.80;53.20;;;;;;4971882;28;20034;-81
2022/03/13 06:34:31;;;;;;;17.83;8.73;;;6.90;53.40;;;;;;4964678;28;20453;-81
2022/03/13 06:36:58;;;;;;;11.93;7.18;;;6.80;53.30;;;;;;4972875;28;20124;-81
2022/03/13 06:39:24;;;;;;;13.30;8.23;;;6.80;54.20;;;;;;4974037;28;20041;-81
2022/03/13 06:41:50;;;;;;;10.77;7.28;;;6.90;53.90;;;;;;4974089;28;20029;-81
2022/03/13 06:44:16;;;;;;;15.35;8.75;;;7.00;53.30;;;;;;4962021;28;20041;-81
2022/03/13 06:46:41;;;;;;;16.77;8.05;;;7.00;53.20;;;;;;4973951;28;20498;-80
2022/03/13 06:49:07;;;;;;;12.95;7.75;;;6.90;53.10;;;;;;4980422;28;20041;-79
2022/03/13 06:51:33;;;;;;;11.68;7.93;;;7.00;53.40;;;;;;4995492;28;20507;-80
2022/03/13 06:53:59;;;;;;;12.77;7.38;;;7.10;52.80;;;;;;4989654;28;20572;-79
2022/03/13 06:56:24;;;;;;;10.90;6.85;;;7.20;53.20;;;;;;4983457;28;20600;-79
2022/03/13 06:58:50;;;;;;;13.55;7.50;;;7.20;52.80;;;;;;4986459;28;20037;-80
2022/03/13 07:01:16;;;;;;;14.77;8.23;;;7.30;52.50;;;;;;4970344;28;20040;-79
2022/03/13 07:03:42;;;;;;;12.40;7.95;;;7.30;52.70;;;;;;4972265;28;20025;-80
2022/03/13 07:06:08;;;;;;;13.90;8.43;;;7.30;53.40;;;;;;4975081;28;20172;-79
2022/03/13 07:08:33;;;;;;;14.30;7.40;;;7.50;52.50;;;;;;4988069;28;20549;-79
2022/03/13 07:11:01;;;;;;;11.63;7.15;;;7.70;52.10;;;;;;4991218;28;20175;-80
2022/03/13 07:13:32;;;;;;;14.10;7.60;;;7.70;52.40;;;;;;4992163;28;20045;-79
2022/03/13 07:16:07;;;;;;;15.68;8.15;;;7.80;51.90;;;;;;4978096;28;20532;-79
2022/03/13 07:18:32;;;;;;;11.00;7.10;;;7.80;51.40;;;;;;4989215;28;20050;-79
2022/03/13 07:20:58;;;;;;;16.35;8.35;;;7.80;51.90;;;;;;4988234;28;20112;-78
2022/03/13 07:23:24;;;;;;;10.48;6.00;;;8.00;51.60;;;;;;4989126;28;20068;-80
2022/03/13 07:25:49;;;;;;;14.82;6.78;;;8.00;51.80;;;;;;4982197;28;20037;-80
2022/03/13 07:28:15;;;;;;;16.85;7.90;;;8.10;51.30;;;;;;4995192;28;20034;-80
2022/03/13 07:30:41;;;;;;;15.63;8.18;;;8.10;51.20;;;;;;4967294;28;20034;-80
2022/03/13 07:33:06;;;;;;;13.90;8.10;;;8.20;50.90;;;;;;4968711;28;20671;-79
2022/03/13 07:35:32;;;;;;;14.57;8.57;;;8.20;50.80;;;;;;4968989;28;20045;-80
2022/03/13 07:37:58;;;;;;;14.00;9.20;;;8.30;50.50;;;;;;4973525;28;20056;-80
2022/03/13 07:40:33;;;;;;;14.15;8.38;;;8.40;50.50;;;;;;4988774;28;20057;-81
2022/03/13 07:42:59;;;;;;;14.45;8.48;;;8.40;51.40;;;;;;5001691;28;20030;-80
2022/03/13 07:45:25;;;;;;;17.20;7.80;;;8.50;50.10;;;;;;4986139;28;20392;-79
2022/03/13 07:47:54;;;;;;;13.05;8.10;;;8.50;50.90;;;;;;5004310;28;20032;-79
2022/03/13 07:50:20;;;;;;;12.13;8.02;;;8.60;50.60;;;;;;4969347;28;20032;-79
2022/03/13 07:52:48;;;;;;;14.98;8.77;;;8.70;50.10;;;;;;4990909;28;20038;-80
2022/03/13 07:55:16;;;;;;;15.60;8.82;;;8.70;50.00;;;;;;4977294;28;20030;-80
2022/03/13 07:57:42;;;;;;;14.02;8.50;;;8.80;50.40;;;;;;4978472;28;20164;-79
2022/03/13 08:00:10;;;;;;;15.45;8.43;;;8.90;50.40;;;;;;4966754;28;20120;-79
2022/03/13 08:02:37;;;;;;;15.50;8.35;;;9.00;50.40;;;;;;4990319;28;20397;-80
2022/03/13 08:05:03;;;;;;;14.93;8.57;;;9.00;50.40;;;;;;4991430;28;20026;-80
2022/03/13 08:07:28;;;;;;;14.57;8.55;;;9.10;50.60;;;;;;4986120;28;20057;-79
2022/03/13 08:10:00;;;;;;;15.30;9.15;;;9.20;50.40;;;;;;4993471;28;20030;-79
2022/03/13 08:12:26;;;;;;;14.77;8.40;;;9.30;50.30;;;;;;4971424;28;20053;-82
2022/03/13 08:14:52;;;;;;;12.57;7.93;;;9.40;50.30;;;;;;5002954;28;20422;-80
2022/03/13 08:17:18;;;;;;;17.08;8.82;;;9.50;50.10;;;;;;5004234;28;20078;-80
2022/03/13 08:19:43;;;;;;;15.48;9.23;;;9.70;50.00;;;;;;4991474;28;20034;-80
2022/03/13 08:22:09;;;;;;;14.93;8.55;;;9.80;49.80;;;;;;5006170;28;20025;-80
2022/03/13 08:24:35;;;;;;;16.38;9.07;;;9.80;49.70;;;;;;4987934;28;20045;-80
2022/03/13 08:27:00;;;;;;;16.27;8.77;;;9.90;50.00;;;;;;4996203;28;20026;-79
2022/03/13 08:29:26;;;;;;;13.13;8.60;;;10.00;49.30;;;;;;4991164;28;20092;-80
2022/03/13 08:31:51;;;;;;;14.77;8.23;;;10.10;49.20;;;;;;4986291;28;20393;-80
2022/03/13 08:34:19;;;;;;;12.45;8.20;;;10.20;49.30;;;;;;4984159;28;20041;-80
2022/03/13 08:36:46;;;;;;;15.20;8.25;;;10.40;49.90;;;;;;4973781;28;20045;-80
2022/03/13 08:39:11;;;;;;;14.63;8.52;;;10.50;49.70;;;;;;4977288;28;20029;-80
2022/03/13 08:41:37;;;;;;;15.98;9.50;;;10.60;50.00;;;;;;4973588;28;20072;-80
2022/03/13 08:44:03;;;;;;;16.88;9.30;;;10.80;49.90;;;;;;4978446;28;20397;-79
2022/03/13 08:46:28;;;;;;;15.75;8.82;;;10.90;49.20;;;;;;4976852;28;20049;-81
2022/03/13 08:48:54;;;;;;;15.50;9.27;;;11.10;49.20;;;;;;4976541;28;20531;-79
2022/03/13 08:51:23;;;;;;;15.90;8.68;;;11.20;49.30;;;;;;4987655;28;20117;-80
2022/03/13 08:53:49;;;;;;;15.52;10.38;;;11.40;49.20;;;;;;4990328;28;20054;-80
2022/03/13 08:56:15;;;;;;;14.32;9.82;;;11.50;49.00;;;;;;4971919;28;20033;-80
2022/03/13 08:58:42;;;;;;;16.23;10.05;;;11.70;49.50;;;;;;4985421;28;20038;-79
2022/03/13 09:01:08;;;;;;;16.48;9.43;;;11.90;49.20;;;;;;4978385;28;20026;-80
2022/03/13 09:03:34;;;;;;;18.08;9.85;;;12.10;49.00;;;;;;4984004;28;20038;-79
2022/03/13 09:05:59;;;;;;;17.60;8.63;;;12.20;49.90;;;;;;4968526;28;20035;-81
2022/03/13 09:08:25;;;;;;;16.30;9.20;;;12.30;49.10;;;;;;4984094;28;20599;-79
2022/03/13 09:11:14;;;;;;;13.20;9.00;;;12.40;49.20;;;;;;4992921;28;20382;-80
2022/03/13 09:13:39;;;;;;;16.05;9.10;;;12.50;49.50;;;;;;4964416;28;20060;-79
2022/03/13 09:16:05;;;;;;;13.15;8.38;;;12.60;49.10;;;;;;4978058;28;20513;-80
2022/03/13 09:18:30;;;;;;;15.68;9.35;;;12.60;50.00;;;;;;4987801;28;20033;-80
2022/03/13 09:20:57;;;;;;;14.90;9.32;;;12.70;50.60;;;;;;4989976;28;20045;-80
2022/03/13 09:23:23;;;;;;;19.48;10.10;;;12.80;50.70;;;;;;4994439;28;20034;-79
2022/03/13 09:25:50;;;;;;;16.55;10.20;;;12.90;50.70;;;;;;4973809;28;22681;-80
2022/03/13 09:28:16;;;;;;;14.32;8.98;;;13.10;51.20;;;;;;4971948;28;20057;-80
2022/03/13 09:30:41;;;;;;;16.75;9.25;;;13.50;51.10;;;;;;4978082;28;20084;-80
2022/03/13 09:33:11;;;;;;;16.60;10.73;;;13.70;51.00;;;;;;4961163;28;20169;-81
2022/03/13 09:35:36;;;;;;;14.85;9.65;;;13.80;50.50;;;;;;4988310;28;20096;-80
2022/03/13 09:38:02;;;;;;;12.70;8.20;;;13.80;50.90;;;;;;4962511;28;20044;-79
2022/03/13 09:40:27;;;;;;;17.55;10.55;;;14.40;51.10;;;;;;4995466;28;20045;-80
2022/03/13 09:42:53;;;;;;;16.65;11.73;;;14.80;50.60;;;;;;4978057;28;20041;-82
2022/03/13 09:45:19;;;;;;;14.00;9.82;;;14.80;49.90;;;;;;4996954;28;20449;-81
2022/03/13 09:47:44;;;;;;;14.82;9.43;;;14.70;50.90;;;;;;4971795;28;20328;-81
2022/03/13 09:50:12;;;;;;;17.50;10.07;;;15.10;50.30;;;;;;4962058;28;20045;-82
2022/03/13 09:52:40;;;;;;;15.82;10.77;;;15.60;49.80;;;;;;4982987;28;20076;-82
2022/03/13 09:55:07;;;;;;;15.45;8.85;;;15.80;50.60;;;;;;4983660;28;20088;-81
2022/03/13 09:57:34;;;;;;;16.40;10.70;;;16.00;50.20;;;;;;4958464;28;20053;-81
2022/03/13 10:00:26;;;;;;;12.60;7.80;;;16.10;50.70;;;;;;4986148;28;20537;-83
2022/03/13 10:02:58;;;;;;;14.77;9.45;;;16.60;49.90;;;;;;4987753;28;20435;-83
2022/03/13 10:05:24;;;;;;;14.43;9.18;;;16.80;49.80;;;;;;4983839;28;20056;-83
2022/03/13 10:08:00;;;;;;;16.08;9.88;;;17.30;49.70;;;;;;4996863;28;20637;-83
2022/03/13 10:10:28;;;;;;;14.88;10.60;;;17.50;48.80;;;;;;4991419;28;20525;-83
2022/03/13 10:12:53;;;;;;;13.48;8.02;;;17.30;49.30;;;;;;4964080;28;20043;-83
2022/03/13 10:15:19;;;;;;;14.02;8.65;;;17.20;50.20;;;;;;4975635;28;20034;-82
2022/03/13 10:17:48;;;;;;;14.32;9.43;;;17.70;49.40;;;;;;4971938;28;20121;-82
2022/03/13 10:20:23;;;;;;;14.63;8.77;;;17.90;49.10;;;;;;4972352;28;20140;-81
2022/03/13 10:23:11;;;;;;;14.02;10.10;;;18.20;48.60;;;;;;4974475;28;20105;-80
2022/03/13 10:25:41;;;;;;;13.20;9.25;;;18.20;49.00;;;;;;4982274;28;20500;-80
2022/03/13 10:28:26;;;;;;;15.77;10.43;;;18.20;49.00;;;;;;4974854;28;20545;-81
2022/03/13 10:31:00;;;;;;;12.70;8.02;;;18.30;48.60;;;;;;4986038;28;20061;-82
2022/03/13 10:33:27;;;;;;;13.63;8.90;;;18.30;48.20;;;;;;5002305;28;20367;-80
2022/03/13 10:36:09;;;;;;;15.25;9.50;;;18.40;48.70;;;;;;4988700;28;20482;-80
2022/03/13 10:38:35;;;;;;;13.02;8.00;;;18.30;49.00;;;;;;4982814;28;20034;-80
2022/03/13 10:41:01;;;;;;;12.15;7.85;;;18.50;48.60;;;;;;5002731;28;20037;-80
2022/03/13 10:43:29;;;;;;;13.95;9.02;;;18.70;48.80;;;;;;4986136;28;20067;-79
2022/03/13 10:45:56;;;;;;;16.83;8.98;;;18.70;48.40;;;;;;4960886;28;20683;-79
2022/03/13 10:48:36;;;;;;;14.93;9.88;;;18.70;48.40;;;;;;4996703;28;20037;-79
2022/03/13 10:51:06;;;;;;;16.20;9.80;;;18.80;47.90;;;;;;4982337;28;20389;-78
2022/03/13 10:53:32;;;;;;;13.32;7.95;;;18.80;48.20;;;;;;4993535;28;20084;-78
2022/03/13 10:56:04;;;;;;;12.13;8.80;;;19.10;48.20;;;;;;4963343;28;20030;-79
2022/03/13 10:58:30;;;;;;;11.07;6.40;;;19.20;48.10;;;;;;5015819;28;20090;-77
2022/03/13 11:01:25;;;;;;;14.52;9.13;;;19.20;48.20;;;;;;4972321;28;20038;-78
2022/03/13 11:04:06;;;;;;;12.85;8.60;;;19.40;48.20;;;;;;4976591;28;20145;-78
2022/03/13 11:06:32;;;;;;;12.07;8.80;;;19.50;47.30;;;;;;4967805;28;20038;-77
2022/03/13 11:08:58;;;;;;;15.05;10.23;;;19.10;48.10;;;;;;4967680;28;20397;-78
2022/03/13 11:11:25;;;;;;;12.75;8.60;;;19.10;48.70;;;;;;4967035;28;20033;-77
2022/03/13 11:13:53;;;;;;;16.23;9.50;;;19.50;48.20;;;;;;4973458;28;20080;-77
2022/03/13 11:16:28;;;;;;;9.10;5.15;;;19.60;47.50;;;;;;5000523;28;20099;-77
2022/03/13 11:18:55;;;;;;;12.85;9.15;;;19.60;47.80;;;;;;4997952;28;20052;-79
2022/03/13 11:21:21;;;;;;;13.48;8.75;;;19.90;45.90;;;;;;4981691;28;20036;-77
2022/03/13 11:23:47;;;;;;;10.35;7.38;;;19.90;48.60;;;;;;4988689;28;20030;-77
2022/03/13 11:26:16;;;;;;;10.88;7.10;;;20.20;47.10;;;;;;4991933;28;20387;-81
2022/03/13 11:28:43;;;;;;;11.98;7.85;;;20.40;46.70;;;;;;4978167;28;20033;-76
2022/03/13 11:31:38;;;;;;;10.57;8.15;;;20.20;47.20;;;;;;4983978;28;20315;-78
2022/03/13 11:34:16;;;;;;;10.80;7.22;;;20.60;45.40;;;;;;5014931;28;20038;-79
2022/03/13 11:36:45;;;;;;;12.35;8.85;;;20.60;46.70;;;;;;4968420;28;20033;-79
2022/03/13 11:39:13;;;;;;;10.07;7.00;;;20.80;44.70;;;;;;4989092;28;20087;-79
2022/03/13 11:41:46;;;;;;;12.90;7.65;;;20.50;46.60;;;;;;4980079;28;20034;-77
2022/03/13 11:44:23;;;;;;;10.75;8.18;;;20.70;46.40;;;;;;4974674;28;20045;-78
2022/03/13 11:46:50;;;;;;;13.88;8.05;;;20.70;46.40;;;;;;5022191;28;20103;-79
2022/03/13 11:49:34;;;;;;;11.00;6.95;;;20.90;45.90;;;;;;5001461;28;20458;-78
2022/03/13 11:52:09;;;;;;;11.68;8.02;;;20.70;46.50;;;;;;5005000;28;20034;-80
2022/03/13 11:54:53;;;;;;;13.35;8.10;;;21.30;45.20;;;;;;5022031;28;20052;-78
2022/03/13 11:57:19;;;;;;;11.30;8.00;;;21.10;45.10;;;;;;5021265;28;20123;-78
2022/03/13 11:59:49;;;;;;;11.60;7.90;;;20.70;44.30;;;;;;4624432;28;9999851;-78
2022/03/13 12:02:53;;;;;;;9.73;6.40;;;21.10;44.40;;;;;;4619252;28;9999592;-77
2022/03/13 12:05:26;;;;;;;10.13;7.10;;;21.10;44.80;;;;;;4930242;28;20117;-79
2022/03/13 12:07:55;;;;;;;10.35;6.57;;;21.00;44.80;;;;;;4929971;28;20042;-79
2022/03/13 12:10:41;;;;;;;7.50;5.95;;;21.10;44.70;;;;;;4963530;28;20590;-79
2022/03/13 12:13:18;;;;;;;9.30;6.60;;;21.60;44.50;;;;;;4959039;28;20513;-79
2022/03/13 12:15:58;;;;;;;9.27;7.00;;;21.70;43.60;;;;;;4987160;28;20030;-78
2022/03/13 12:18:27;;;;;;;8.48;5.70;;;21.40;44.00;;;;;;4976793;28;20497;-78
2022/03/13 12:21:04;;;;;;;10.40;7.55;;;21.70;43.90;;;;;;4982209;28;20589;-78
2022/03/13 12:23:33;;;;;;;12.63;9.10;;;21.50;43.60;;;;;;4977550;28;20180;-78
2022/03/13 12:26:19;;;;;;;9.77;7.45;;;21.30;44.20;;;;;;4986919;28;20498;-78
2022/03/13 12:28:48;;;;;;;8.80;7.18;;;21.10;45.40;;;;;;5003498;28;20037;-80
2022/03/13 12:31:14;;;;;;;10.00;7.15;;;21.50;44.30;;;;;;4961576;28;20037;-78
2022/03/13 12:33:47;;;;;;;10.80;7.80;;;21.60;44.00;;;;;;4963603;28;20021;-78
2022/03/13 12:36:19;;;;;;;10.88;7.75;;;21.40;43.50;;;;;;4984437;28;20121;-79
2022/03/13 12:38:49;;;;;;;10.20;7.32;;;20.80;44.50;;;;;;4969065;28;20099;-79
2022/03/13 12:41:14;;;;;;;10.38;7.43;;;21.60;44.50;;;;;;5002154;28;20057;-79
2022/03/13 12:43:53;;;;;;;10.45;7.47;;;22.10;44.20;;;;;;4983403;28;20057;-80
2022/03/13 12:46:23;;;;;;;11.10;8.27;;;22.00;42.90;;;;;;4974572;28;20042;-77